Weather observations for the past three days for
Spartanburg Memorial
Imperial (Metric)
Date Time (edt) Wind (mph) Vis. (mi.) Weather Sky Cond. Temperature (ºF) Relative Humidity Wind Chill (°F) Heat Index (°F) Pressure Precipitation (in)
Air Dwpt 6 hour altimeter (in) sea level (mb) 1 hr 3 hr 6 hr
Max. Min.
05 19:15 Calm 10.00 Fair CLR 78.8 71.6 79% 82 29.88 0.0
05 18:55 SW 5 10.00 Fair CLR 78.8 71.6 79% 82 29.88 0.0
05 18:35 Calm 10.00 Fair CLR 78.8 71.6 79% 82 29.88 0.0
05 18:15 W 3 10.00 Fair CLR 78.8 71.6 79% 82 29.87 0.0
05 17:55 Calm 10.00 Fair CLR 78.8 71.6 79% 82 29.88 0.0
05 17:35 W 3 10.00 Fair CLR 78.8 71.6 79% 82 29.88 0.0
05 17:15 Calm 10.00 Fair CLR 78.8 69.8 74% 81 29.9 0.0
05 16:55 NE 5 7.00 Fair CLR 77 71.6 83% 78 29.89 0.0
05 16:35 E 5 10.00 Fair CLR 75.2 71.6 89% 75 29.9 0.0
05 16:15 NE 5 7.00 Partly Cloudy SCT032 SCT050 SCT065 73.4 68 83% 29.91 0.0
05 15:55 SE 6 G 17 3.00 Thunderstorm Light Rain in Vicinity SCT022 BKN050 OVC110 73.4 64.4 74% 29.87 0.0 0.24
05 13:55 E 5 7.00 Partly Cloudy SCT050 95 68 41% 100 29.9 0.0
05 13:35 Calm 10.00 Partly Cloudy SCT050 95 68 41% 100 29.91 0.0
05 13:15 Calm 10.00 Fair CLR 95 68 41% 100 29.93 0.0
05 12:55 Calm 10.00 Fair CLR 93.2 69.8 47% 99 29.94 0.0
05 12:35 NE 5 10.00 Fair CLR 91.4 69.8 49% 97 29.94 0.0
05 12:15 Calm 10.00 Fair CLR 91.4 69.8 49% 97 29.95 0.0
05 11:55 Calm 10.00 Fair CLR 91.4 71.6 52% 99 29.95 0.0
05 11:35 Calm 10.00 Fair CLR 89.6 71.6 55% 96 29.96 0.0
05 11:15 SW 3 10.00 Fair CLR 87.8 71.6 59% 94 29.96 0.0
05 10:55 Calm 10.00 Fair CLR 87.8 71.6 59% 94 29.96 0.0
05 10:35 Calm 7.00 Fair CLR 86 71.6 62% 92 29.96 0.0
05 10:15 Calm 10.00 Fair CLR 84.2 71.6 66% 90 29.96 0.0
05 09:55 Calm 10.00 Fair CLR 82.4 71.6 70% 87 29.97 0.0
05 09:35 Calm 10.00 Fair CLR 80.6 71.6 74% 85 29.97 0.0
05 09:15 Calm 10.00 Fair CLR 80.6 71.6 74% 85 29.97 0.0
05 08:55 Calm 10.00 Fair CLR 78.8 71.6 79% 82 29.97 0.0
05 08:35 Calm 10.00 Fair CLR 77 71.6 83% 78 29.97 0.0
05 08:15 W 3 10.00 Fair CLR 75.2 71.6 89% 75 29.97 0.0
05 07:55 Calm 10.00 Fair CLR 73.4 69.8 89% 29.97 0.0
05 07:35 Calm 10.00 Fair CLR 73.4 69.8 89% 29.95 0.0
05 07:15 SW 3 10.00 Fair CLR 73.4 69.8 89% 29.95 0.0
05 06:55 Calm 10.00 Fair CLR 73.4 69.8 89% 29.94 0.0
05 06:35 S 3 10.00 Fair CLR 73.4 69.8 89% 29.94 0.0
05 06:15 Calm 10.00 Fair CLR 73.4 69.8 89% 29.93 0.0
05 05:55 Calm 10.00 Fair CLR 73.4 69.8 89% 29.93 0.0
05 05:35 SW 3 10.00 Fair CLR 73.4 69.8 89% 29.93 0.0
05 05:15 SW 3 10.00 Fair CLR 73.4 69.8 89% 29.93 0.0
05 04:55 SW 3 10.00 Fair CLR 73.4 69.8 89% 29.93 0.0
05 04:35 SW 3 10.00 Fair CLR 73.4 69.8 89% 29.94 0.0
05 04:15 Calm 10.00 Fair CLR 75.2 69.8 83% 75 29.94 0.0
05 03:55 Calm 10.00 Fair CLR 75.2 69.8 83% 75 29.94 0.0
05 03:35 Calm 10.00 Fair CLR 75.2 69.8 83% 75 29.95 0.0
05 03:15 Calm 10.00 Fair CLR 77 69.8 79% 79 29.95 0.0
05 02:55 Calm 10.00 Fair CLR 77 69.8 79% 79 29.96 0.0
05 02:35 Calm 10.00 Fair CLR 77 69.8 79% 79 29.97 0.0
05 02:15 Calm 10.00 Fair CLR 77 69.8 79% 79 29.97 0.0
05 01:55 Calm 10.00 Fair CLR 78.8 69.8 74% 81 29.97 0.0
05 01:35 Calm 10.00 Fair CLR 77 69.8 79% 79 29.98 0.0
05 01:15 Calm 10.00 Fair CLR 77 69.8 79% 79 29.98 0.0
05 00:55 Calm 10.00 Fair CLR 78.8 69.8 74% 81 29.97 0.0
05 00:35 Calm 10.00 Fair CLR 78.8 69.8 74% 81 29.97 0.0
05 00:15 W 3 10.00 Fair CLR 78.8 69.8 74% 81 29.97 0.0
04 23:55 Calm 10.00 Fair CLR 80.6 69.8 70% 84 29.97 0.0
04 23:35 Calm 10.00 Fair CLR 78.8 69.8 74% 81 29.97 0.0
04 23:15 Calm 10.00 Fair CLR 78.8 71.6 79% 82 29.98 0.0
04 22:55 SW 3 10.00 Fair CLR 82.4 69.8 66% 86 29.99 0.0
04 22:35 SW 3 10.00 Fair CLR 80.6 71.6 74% 85 29.99 0.0
04 22:15 Calm 10.00 Fair CLR 78.8 71.6 79% 82 29.99 0.0
04 21:55 Calm 10.00 Fair CLR 80.6 73.4 79% 85 29.99 0.0
04 21:35 Calm 10.00 Fair CLR 80.6 73.4 79% 85 29.99 0.0
04 21:15 Calm 10.00 Fair CLR 82.4 73.4 74% 88 29.99 0.0
04 20:55 Calm 10.00 Fair CLR 80.6 73.4 79% 85 29.98 0.0
04 20:35 Calm 10.00 Fair CLR 84.2 71.6 66% 90 29.97 0.0
04 20:15 Calm 10.00 Fair CLR 82.4 73.4 74% 88 29.97 0.0
04 19:55 Calm 10.00 Fair CLR 86 73.4 66% 93 29.97 0.0
04 19:35 Calm 10.00 Fair CLR 87.8 73.4 62% 96 29.96 0.0
04 19:15 Calm 10.00 Fair CLR 91.4 69.8 49% 97 29.96 0.0
04 18:55 Calm 10.00 Fair CLR 93.2 64.4 39% 95 29.96 0.0
04 18:35 Calm 10.00 Fair CLR 93.2 66.2 41% 96 29.96 0.0
04 18:15 Calm 10.00 Fair CLR 93.2 64.4 39% 95 29.96 0.0
04 17:55 Calm 10.00 Fair CLR 93.2 62.6 36% 94 29.96 0.0
04 17:35 NE 5 10.00 Fair CLR 95 62.6 34% 96 29.97 0.0
04 17:15 E 3 10.00 Fair CLR 95 62.6 34% 96 29.97 0.0
04 16:55 S 3 10.00 Fair CLR 95 66.2 39% 98 29.97 0.0
04 16:35 Calm 10.00 Fair CLR 95 64.4 36% 97 29.97 0.0
04 16:15 Calm 10.00 Fair CLR 95 64.4 36% 97 29.98 0.0
04 15:55 SE 5 10.00 Fair CLR 95 66.2 39% 98 29.99 0.0
04 15:35 Calm 10.00 Fair CLR 95 68 41% 100 30 0.0
04 15:15 Calm 10.00 Fair CLR 95 68 41% 100 30.01 0.0
04 14:55 SE 6 10.00 Fair CLR 95 68 41% 100 30.01 0.0
04 14:35 E 6 10.00 Partly Cloudy SCT043 93.2 68 44% 98 30.02 0.0
04 14:15 Calm 10.00 Partly Cloudy SCT043 91.4 69.8 49% 97 30.03 0.0
04 13:55 Calm 7.00 Fair CLR 91.4 69.8 49% 97 30.03 0.0
04 13:35 Calm 10.00 Fair CLR 91.4 69.8 49% 97 30.04 0.0
04 13:15 S 3 10.00 Fair CLR 91.4 69.8 49% 97 30.05 0.0
04 12:55 S 3 10.00 Fair CLR 91.4 71.6 52% 99 30.05 0.0
04 12:35 Calm 10.00 Fair CLR 89.6 71.6 55% 96 30.06 0.0
04 12:15 S 5 10.00 Fair CLR 89.6 71.6 55% 96 30.06 0.0
04 11:55 Calm 10.00 Fair CLR 87.8 71.6 59% 94 30.06 0.0
04 11:35 Calm 10.00 Fair CLR 87.8 71.6 59% 94 30.07 0.0
04 11:15 NW 6 7.00 Fair CLR 86 71.6 62% 92 30.07 0.0
04 10:55 SW 5 7.00 Fair CLR 86 71.6 62% 92 30.06 0.0
04 10:35 W 3 10.00 Fair CLR 86 71.6 62% 92 30.07 0.0
04 10:15 Calm 10.00 Fair CLR 82.4 71.6 70% 87 30.07 0.0
04 09:55 SW 5 10.00 Fair CLR 82.4 71.6 70% 87 30.07 0.0
04 09:35 SW 5 10.00 Fair CLR 80.6 71.6 74% 85 30.07 0.0
04 09:15 W 3 10.00 Fair CLR 78.8 71.6 79% 82 30.07 0.0
04 08:55 SW 6 10.00 Fair CLR 78.8 71.6 79% 82 30.07 0.0
04 08:35 Calm 10.00 Fair CLR 77 69.8 79% 79 30.07 0.0
04 08:15 SW 3 10.00 Fair CLR 75.2 69.8 83% 75 30.07 0.0
04 07:50 Calm 10.00 Fair CLR 73.4 69.8 89% 30.06 0.0
04 07:15 Calm 10.00 Fair CLR 73.4 69.8 89% 30.05 0.0
04 06:55 Calm 10.00 Fair CLR 71.6 69.8 94% 30.05 0.0
04 06:35 Calm 10.00 Fair CLR 71.6 69.8 94% 30.05 0.0
04 06:15 Calm 10.00 Fair CLR 71.6 69.8 94% 30.05 0.0
04 05:55 Calm 10.00 Fair CLR 71.6 69.8 94% 30.04 0.0
04 05:35 Calm 10.00 Fair CLR 71.6 69.8 94% 30.04 0.0
04 05:15 Calm 10.00 Fair CLR 71.6 69.8 94% 30.04 0.0
04 04:55 Calm 10.00 Fair CLR 73.4 69.8 89% 30.03 0.0
04 04:35 Calm 10.00 Fair CLR 73.4 69.8 89% 30.03 0.0
04 04:15 Calm 10.00 Fair CLR 73.4 71.6 94% 30.03 0.0
04 03:55 Calm 10.00 Fair CLR 73.4 71.6 94% 30.03 0.0
04 03:35 Calm 10.00 Fair CLR 73.4 71.6 94% 30.03 0.0
04 03:15 Calm 10.00 Fair CLR 73.4 71.6 94% 30.02 0.0
04 02:55 Calm 10.00 Fair CLR 75.2 71.6 89% 75 30.03 0.0
04 02:35 Calm 10.00 Fair CLR 75.2 69.8 83% 75 30.03 0.0
04 02:15 Calm 10.00 Fair CLR 77 69.8 79% 79 30.04 0.0
04 01:55 Calm 10.00 Fair CLR 77 69.8 79% 79 30.05 0.0
04 01:35 Calm 10.00 Fair CLR 77 69.8 79% 79 30.05 0.0
04 00:55 Calm 10.00 Fair CLR 78.8 69.8 74% 81 30.05 0.0
04 00:35 Calm 10.00 Fair CLR 78.8 69.8 74% 81 30.06 0.0
04 00:15 Calm 10.00 Fair CLR 80.6 69.8 70% 84 30.06 0.0
03 23:55 Calm 10.00 Fair CLR 78.8 71.6 79% 82 30.06 0.0
03 23:35 Calm 10.00 Fair CLR 78.8 71.6 79% 82 30.06 0.0
03 23:15 Calm 10.00 Fair CLR 78.8 71.6 79% 82 30.06 0.0
03 22:55 Calm 10.00 Fair CLR 78.8 71.6 79% 82 30.06 0.0
03 22:35 Calm 7.00 Fair CLR 80.6 71.6 74% 85 30.06 0.0
03 22:15 Calm 10.00 Fair CLR 78.8 73.4 84% 82 30.06 0.0
03 21:55 Calm 10.00 Fair CLR 80.6 73.4 79% 85 30.05 0.0
03 21:35 Calm 10.00 Fair CLR 80.6 73.4 79% 85 30.05 0.0
03 21:10 Calm 10.00 Fair CLR 82.4 71.6 70% 87 30.04 0.0
03 20:55 Calm 10.00 Fair CLR 82.4 71.6 70% 87 30.03 0.0
03 20:35 Calm 10.00 Fair CLR 82.4 71.6 70% 87 30.02 0.0
03 20:15 Calm 10.00 Fair CLR 86 71.6 62% 92 30.01 0.0
03 19:55 Calm 10.00 Fair CLR 86 71.6 62% 92 30.01 0.0
03 19:35 Calm 10.00 Fair CLR 87.8 69.8 55% 93 30 0.0
03 19:15 SE 3 7.00 Fair CLR 89.6 69.8 52% 95 30 0.0
03 18:55 SE 5 7.00 Fair CLR 91.4 69.8 49% 97 30 0.0
03 18:35 SE 3 10.00 Fair CLR 93.2 68 44% 98 30 0.0
03 18:15 SE 5 10.00 Fair CLR 95 66.2 39% 98 30 0.0
03 17:55 E 5 7.00 Fair CLR 95 68 41% 100 30 0.0
03 17:35 SE 6 10.00 Fair CLR 95 68 41% 100 30 0.0
03 17:15 E 6 10.00 Fair CLR 95 68 41% 100 30.01 0.0
03 16:55 E 6 10.00 Fair CLR 96.8 68 39% 102 30.01 0.0
03 16:35 E 5 10.00 Fair CLR 96.8 68 39% 102 30.01 0.0
03 16:15 E 6 10.00 Fair CLR 96.8 66.2 37% 100 30.02 0.0
03 15:55 E 6 10.00 Fair CLR 96.8 68 39% 102 30.02 0.0
03 15:35 SE 6 10.00 Fair CLR 95 68 41% 100 30.03 0.0
03 15:15 SE 5 10.00 Fair CLR 95 66.2 39% 98 30.04 0.0
03 14:55 E 6 10.00 Partly Cloudy SCT055 95 68 41% 100 30.05 0.0
03 14:35 S 3 10.00 Fair CLR 95 68 41% 100 30.05 0.0
03 14:15 NE 7 10.00 Partly Cloudy SCT050 93.2 68 44% 98 30.05 0.0
03 13:55 SE 5 10.00 Partly Cloudy SCT050 95 68 41% 100 30.06 0.0
03 13:35 NE 3 10.00 Partly Cloudy SCT050 95 68 41% 100 30.06 0.0
03 13:15 E 6 7.00 Fair CLR 93.2 68 44% 98 30.07 0.0
03 12:55 Calm 10.00 Partly Cloudy SCT044 93.2 68 44% 98 30.08 0.0
03 12:35 N 5 10.00 Fair CLR 91.4 69.8 49% 97 30.08 0.0
03 12:15 NE 3 10.00 Fair CLR 91.4 69.8 49% 97 30.09 0.0
03 11:55 Calm 10.00 Fair CLR 91.4 69.8 49% 97 30.09 0.0
03 11:35 NE 6 7.00 Fair CLR 89.6 69.8 52% 95 30.09 0.0
03 11:15 Calm 7.00 Fair CLR 89.6 71.6 55% 96 30.09 0.0
03 10:55 Calm 10.00 Fair CLR 87.8 71.6 59% 94 30.09 0.0
03 10:35 Calm 7.00 Fair CLR 87.8 69.8 55% 93 30.08 0.0
03 10:15 Calm 7.00 Fair CLR 86 69.8 59% 91 30.08 0.0
03 09:55 Calm 10.00 Fair CLR 86 69.8 59% 91 30.09 0.0
03 09:35 Calm 7.00 Fair CLR 82.4 69.8 66% 86 30.09 0.0
03 09:15 Calm 10.00 Fair CLR 80.6 71.6 74% 85 30.1 0.0
03 08:55 Calm 10.00 Fair CLR 80.6 71.6 74% 85 30.1 0.0
03 08:35 N 3 10.00 Fair CLR 78.8 73.4 84% 82 30.1 0.0
03 08:15 Calm 10.00 Fair CLR 75.2 71.6 89% 75 30.09 0.0
03 07:55 Calm 10.00 Fair CLR 73.4 71.6 94% 30.09 0.0
03 07:35 Calm 10.00 Fair CLR 73.4 71.6 94% 30.08 0.0
03 07:15 Calm 10.00 Fair CLR 71.6 69.8 94% 30.08 0.0
03 06:55 Calm 10.00 Fair CLR 71.6 69.8 94% 30.07 0.0
03 06:35 Calm 10.00 Fair CLR 71.6 69.8 94% 30.07 0.0
03 06:15 Calm 10.00 Fair CLR 71.6 71.6 100% 30.07 0.0
03 05:55 Calm 10.00 Fair CLR 73.4 71.6 94% 30.07 0.0
03 05:35 Calm 10.00 Fair CLR 73.4 71.6 94% 30.07 0.0
03 05:15 Calm 10.00 Fair CLR 73.4 71.6 94% 30.06 0.0
03 04:55 Calm 10.00 Fair CLR 73.4 71.6 94% 30.06 0.0
03 04:35 Calm 10.00 Fair CLR 73.4 71.6 94% 30.05 0.0
03 04:15 Calm 10.00 Fair CLR 73.4 71.6 94% 30.05 0.0
03 03:55 Calm 10.00 Fair CLR 73.4 71.6 94% 30.05 0.0
03 03:35 Calm 10.00 Fair CLR 73.4 71.6 94% 30.05 0.0
03 03:15 Calm 10.00 Fair CLR 73.4 71.6 94% 30.05 0.0
03 02:55 Calm 10.00 Fair CLR 77 71.6 83% 78 30.05 0.0
03 02:35 Calm 10.00 Fair CLR 77 71.6 83% 78 30.04 0.0
03 02:15 Calm 10.00 Fair CLR 77 69.8 79% 79 30.05 0.0
03 01:55 Calm 10.00 Fair CLR 75.2 71.6 89% 75 30.04 0.0
03 01:35 Calm 10.00 Fair CLR 77 71.6 83% 78 30.06 0.0
03 01:15 Calm 10.00 Fair CLR 77 71.6 83% 78 30.06 0.0
03 00:55 Calm 7.00 Fair CLR 77 71.6 83% 78 30.06 0.0
03 00:35 Calm 10.00 Fair CLR 78.8 69.8 74% 81 30.06 0.0
03 00:15 Calm 10.00 Fair CLR 78.8 69.8 74% 81 30.06 0.0
02 23:55 Calm 10.00 Fair CLR 77 71.6 83% 78 30.07 0.0
02 23:35 Calm 10.00 Fair CLR 78.8 71.6 79% 82 30.07 0.0
02 23:15 Calm 10.00 Fair CLR 78.8 71.6 79% 82 30.07 0.0
02 22:55 Calm 10.00 Fair CLR 78.8 71.6 79% 82 30.08 0.0
02 22:35 Calm 10.00 Fair CLR 80.6 71.6 74% 85 30.08 0.0
02 22:15 Calm 7.00 Fair CLR 80.6 71.6 74% 85 30.07 0.0
02 21:55 Calm 10.00 Fair CLR 80.6 71.6 74% 85 30.07 0.0
02 21:35 Calm 10.00 Fair CLR 80.6 73.4 79% 85 30.07 0.0
02 21:15 Calm 10.00 Fair CLR 80.6 73.4 79% 85 30.06 0.0
02 20:55 Calm 10.00 Fair CLR 82.4 73.4 74% 88 30.05 0.0
02 20:35 Calm 10.00 Fair CLR 82.4 73.4 74% 88 30.05 0.0
02 20:15 Calm 10.00 Fair CLR 84.2 71.6 66% 90 30.04 0.0
02 19:55 Calm 10.00 Fair CLR 86 71.6 62% 92 30.04 0.0
02 19:35 Calm 10.00 Fair CLR 87.8 73.4 62% 96 30.04 0.0
Date Time (edt) Wind (mph) Vis. (mi.) Weather Sky Cond. Air Dwpt Max. Min. Relative Humidity Wind Chill (°F) Heat Index (°F) altimeter (in) sea level (mb) 1 hr 3 hr 6 hr
6 hour
Temperature (ºF) Pressure Precipitation (in)